Date,TemperatureHighF,TemperatureAvgF,TemperatureLowF,DewpointHighF,DewpointAvgF,DewpointLowF,HumidityHigh,HumidityAvg,HumidityLow,PressureMaxIn,PressureMinIn,WindSpeedMaxMPH,WindSpeedAvgMPH,GustSpeedMaxMPH,PrecipitationSumIn
2013-3-26,60.6,48.3,36.9,28.2,22.0,13.9,69,38,17,29.97,29.83,15,4,15,0.00
2013-3-27,68.9,48.1,29.7,34.2,27.9,22.2,84,52,18,29.90,29.70,11,2,11,0.00
2013-3-28,74.3,58.4,40.8,52.1,43.1,31.5,74,57,43,29.81,29.67,13,2,13,0.00
2013-3-29,75.4,64.3,58.8,60.4,54.5,43.9,94,72,52,29.73,29.58,17,3,17,0.01
2013-3-30,73.8,61.7,56.1,62.4,57.4,53.9,94,86,62,29.64,29.45,13,2,13,0.19
2013-3-31,78.4,64.0,56.3,61.3,56.4,52.3,96,79,42,29.51,29.37,15,2,15,0.35
2013-4-1,84.0,64.1,47.5,61.0,50.6,44.6,96,67,26,29.62,29.49,10,2,10,0.00
2013-4-2,61.0,51.9,41.4,52.3,41.9,35.0,95,70,48,29.69,29.56,22,8,22,0.31
2013-4-3,50.9,44.6,40.1,40.2,33.6,29.2,95,67,46,29.69,29.59,22,8,22,0.04
2013-4-4,50.4,44.3,40.8,44.4,39.7,31.4,94,84,58,29.67,29.57,12,3,14,0.32
2013-4-5,76.3,56.8,37.2,48.0,38.5,30.6,94,58,20,29.73,29.57,8,2,8,0.00
2013-4-6,80.6,63.2,47.1,51.5,46.6,41.7,85,58,31,29.60,29.37,15,3,15,0.00
2013-4-7,79.7,69.7,60.3,59.9,56.8,54.6,84,65,47,29.96,29.79,10,3,10,0.66
2013-4-8,84.0,71.6,61.9,62.9,59.2,56.0,85,66,46,29.83,29.71,13,3,13,0.00
2013-4-9,89.8,76.0,67.1,68.3,62.9,58.7,83,66,37,29.82,29.69,14,4,14,0.00
2013-4-10,84.0,65.8,43.3,70.0,60.1,40.4,97,83,61,29.84,29.59,20,5,20,1.57
2013-4-11,69.1,50.0,39.0,40.8,36.8,30.0,92,65,25,29.85,29.69,17,5,17,0.01
2013-4-12,80.6,57.8,38.3,47.0,41.0,36.6,95,59,23,29.95,29.80,16,3,16,0.00
2013-4-13,85.6,65.6,50.2,50.1,43.6,37.5,67,48,24,30.01,29.80,14,3,14,0.00
2013-4-14,86.0,69.7,56.1,57.2,53.4,49.0,81,58,36,29.80,29.56,10,2,10,0.00
2013-4-15,90.9,72.0,59.9,68.1,62.8,55.3,96,75,44,29.82,29.68,11,1,11,0.01
2013-4-16,92.7,79.1,70.3,71.6,68.4,64.0,89,72,44,29.93,29.78,10,2,10,0.00
2013-4-17,90.7,79.7,72.5,72.2,69.0,65.6,94,72,47,29.94,29.70,15,4,15,0.00
2013-4-18,77.4,61.9,45.1,68.4,55.2,32.5,96,79,61,29.99,29.60,21,6,21,0.54
2013-4-19,66.6,49.7,35.8,36.1,29.7,19.7,77,50,18,30.13,29.97,21,4,21,0.00
2013-4-20,78.3,57.4,36.9,45.2,37.7,31.1,93,54,21,30.25,30.10,11,2,11,0.00
2013-4-21,78.3,62.4,46.8,46.6,40.6,35.1,80,49,23,30.29,30.14,14,3,14,0.00
2013-4-22,84.6,65.4,48.2,51.0,44.8,40.5,76,51,26,30.22,29.95,9,2,9,0.00
2013-4-23,82.0,64.3,51.8,62.1,54.3,44.8,85,71,49,30.04,29.89,14,4,14,0.00
2013-4-24,71.2,53.3,41.2,44.8,38.8,32.9,91,62,26,30.32,30.04,15,4,15,0.07
2013-4-25,79.2,58.7,37.9,43.8,38.9,32.7,93,53,22,30.38,30.26,11,2,11,0.00
2013-4-26,61.0,56.8,53.6,54.9,48.6,40.8,89,75,57,30.28,30.12,13,3,13,0.01
2013-4-27,80.4,65.0,55.4,67.8,58.6,51.4,93,81,57,30.12,29.99,20,4,20,0.02
2013-4-28,85.8,65.3,48.0,58.1,53.3,46.3,97,69,37,30.06,29.92,8,2,8,0.00
2013-4-29,93.6,72.2,54.5,66.4,57.8,52.1,93,64,31,29.99,29.83,10,2,10,0.00
2013-4-30,91.2,74.1,56.1,65.0,58.5,53.4,92,62,33,29.92,29.81,9,2,9,0.00
2013-5-1,77.5,68.2,61.3,66.0,62.3,59.2,95,82,63,30.05,29.88,21,4,21,0.04
2013-5-2,71.8,61.5,44.6,65.1,57.8,43.0,94,88,74,30.16,30.02,12,4,12,0.21
2013-5-3,65.5,49.3,38.5,43.0,35.1,20.6,94,65,19,30.15,29.99,19,6,19,0.22
2013-5-4,61.5,47.4,36.1,43.4,36.7,26.7,92,69,32,30.00,29.90,21,4,21,0.00
2013-5-5,71.8,54.5,37.8,45.7,39.9,35.8,93,62,31,30.10,29.97,17,4,17,0.00
2013-5-6,83.5,64.1,46.2,56.0,49.1,43.9,92,63,27,30.06,29.95,14,3,14,0.00
2013-5-7,88.7,68.3,50.7,60.2,54.1,48.8,95,65,31,30.09,29.99,7,1,7,0.00
2013-5-8,91.6,73.3,55.2,61.9,57.8,52.9,93,62,34,30.08,29.95,11,1,11,0.00
2013-5-9,77.7,67.6,63.3,67.3,63.1,59.0,98,86,68,30.08,29.93,11,2,11,0.35
2013-5-10,81.9,70.1,63.0,68.6,64.2,60.5,99,83,58,30.03,29.91,14,2,14,0.02
2013-5-11,86.7,70.4,57.6,62.1,54.1,45.4,93,61,27,30.16,30.02,12,3,12,0.00
2013-5-12,81.9,66.5,50.5,53.5,41.6,31.8,79,43,19,30.29,30.16,12,3,12,0.00
2013-5-13,87.8,68.2,50.0,55.1,49.6,43.8,90,58,23,30.26,30.13,11,2,11,0.00
2013-5-14,93.2,73.1,53.4,64.9,54.9,48.6,91,57,23,30.20,30.04,14,2,14,0.00
2013-5-15,79.5,69.3,61.9,68.3,60.2,49.3,95,74,54,30.12,29.94,9,2,9,0.19
2013-5-16,71.1,65.1,61.0,68.9,64.3,59.1,99,97,89,29.99,29.84,13,2,13,1.52
2013-5-17,85.5,73.6,65.8,75.4,70.4,65.6,99,90,70,29.95,29.85,8,1,8,0.02
2013-5-18,95.9,80.6,71.6,76.1,72.6,69.9,98,79,52,30.00,29.87,8,2,8,0.00
2013-5-19,94.8,80.0,67.8,73.6,70.4,67.0,99,75,47,29.94,29.77,14,2,14,0.00
2013-5-20,92.5,80.7,72.3,74.0,70.9,62.4,87,73,52,29.93,29.76,14,4,14,0.00
2013-5-21,79.7,67.2,61.3,71.9,63.5,60.0,99,89,66,29.94,29.72,21,4,21,1.55
2013-5-22,90.3,71.2,61.3,69.3,64.0,60.5,99,80,47,29.99,29.85,11,2,11,0.01
2013-5-23,92.1,75.4,60.1,72.2,67.3,59.8,99,78,49,30.04,29.73,5,1,5,1.56
2013-5-24,85.3,73.7,66.4,66.7,62.3,57.6,90,69,49,30.19,30.01,17,5,17,0.00
2013-5-25,90.0,73.6,63.9,70.1,61.9,53.6,96,68,48,30.19,30.03,11,3,11,0.21
2013-5-26,90.9,75.4,67.3,74.5,68.6,65.3,99,81,47,30.09,29.97,12,2,12,0.00
2013-5-27,91.8,77.8,69.6,70.9,68.4,66.6,94,75,49,30.00,29.82,10,2,10,0.00
2013-5-28,92.8,79.4,69.4,70.7,68.1,66.1,93,70,44,29.91,29.81,14,3,14,0.00
2013-5-29,92.8,78.6,71.6,72.1,68.4,66.7,88,72,46,29.93,29.78,9,2,9,0.00
2013-5-30,85.8,77.1,72.0,76.8,72.1,67.5,94,85,69,29.90,29.72,11,2,11,0.25
2013-5-31,97.0,83.7,75.0,77.8,74.3,71.6,90,75,53,29.88,29.68,14,3,14,0.01
2013-6-1,82.4,73.4,67.5,75.5,70.5,66.0,99,91,74,29.92,29.77,13,2,13,0.77
2013-6-2,79.0,67.9,63.1,69.2,65.3,62.9,99,92,62,30.00,29.91,7,1,7,0.01
2013-6-3,93.0,75.1,61.2,66.0,61.5,57.6,89,66,37,30.01,29.86,9,2,9,0.00
2013-6-4,92.5,76.0,62.8,69.7,65.1,60.5,93,71,44,30.01,29.85,11,3,11,0.00
2013-6-5,95.2,80.1,68.4,74.4,68.7,63.7,87,70,47,29.97,29.77,13,3,13,0.00
2013-6-6,81.9,72.2,68.0,70.7,67.9,65.4,99,86,63,29.91,29.79,15,2,15,0.65
2013-6-7,90.7,75.6,66.6,65.4,60.4,52.9,90,63,30,29.93,29.84,9,2,9,0.00
2013-6-8,95.0,77.5,60.4,67.0,61.8,57.7,95,63,33,29.95,29.83,8,1,8,0.00
2013-6-9,92.3,75.6,66.0,73.0,68.9,64.1,97,81,52,29.93,29.84,9,2,9,0.22
2013-6-10,98.8,81.5,67.6,75.8,71.3,67.1,99,75,40,29.95,29.88,11,2,11,0.00
2013-6-11,99.3,84.0,70.0,77.7,73.7,69.3,99,74,45,30.03,29.93,10,2,10,0.00
2013-6-19,97.5,80.7,66.2,73.3,69.0,65.3,99,71,40,30.02,29.90,7,2,7,0.00
2013-6-20,100.9,84.6,69.8,78.8,73.4,68.3,96,72,42,30.06,29.94,7,2,7,0.00
2013-6-21,100.4,86.0,74.1,77.9,74.6,71.9,98,72,41,30.08,29.96,7,1,7,0.00
2013-6-22,99.9,85.5,72.9,77.4,74.1,71.7,97,72,44,30.06,29.89,6,1,6,0.00
2013-6-23,101.1,86.0,73.8,77.6,73.2,69.0,97,69,38,30.01,29.88,8,2,8,0.00
2013-6-24,99.9,85.5,72.9,76.9,73.2,70.4,95,69,42,30.05,29.93,8,2,8,0.00
2013-6-25,99.3,85.2,76.1,76.7,74.1,71.9,92,71,44,30.03,29.87,14,3,14,0.00
2013-6-26,99.3,85.9,75.7,76.8,73.7,72.0,92,69,44,29.99,29.85,13,2,13,0.00
2013-6-27,102.2,86.7,73.9,77.7,75.1,72.2,95,71,43,29.99,29.84,13,2,13,0.00
2013-6-28,105.3,88.4,76.3,77.6,71.7,63.6,92,62,30,29.91,29.75,14,3,14,0.00
2013-6-29,96.4,86.2,75.2,70.2,62.0,55.7,72,47,27,29.83,29.73,21,4,21,0.00
2013-6-30,90.9,79.4,70.2,62.7,59.3,55.1,73,52,33,29.89,29.77,20,4,20,0.00
2013-7-1,94.1,78.7,62.8,65.4,59.9,53.6,88,56,28,29.97,29.87,14,3,14,0.00
2013-7-2,95.7,79.2,62.2,65.4,56.2,42.7,86,51,19,30.03,29.95,9,2,9,0.00
2013-7-3,97.2,82.4,64.8,65.3,60.0,53.6,84,50,26,30.07,29.95,10,2,10,0.00
2013-7-4,96.8,80.0,64.6,63.7,60.3,55.1,82,55,26,30.03,29.92,8,1,8,0.00
2013-7-5,100.9,82.7,65.3,64.8,61.0,55.0,84,53,23,30.02,29.90,8,1,8,0.00
2013-7-6,99.9,82.3,66.0,72.1,65.5,61.6,88,60,31,30.00,29.89,15,2,15,0.00
2013-7-7,102.9,88.0,70.9,75.8,70.2,65.8,89,59,33,29.97,29.78,8,2,8,0.00
2013-7-8,99.9,91.3,81.1,76.3,73.6,70.6,79,57,40,29.93,29.69,10,4,10,0.00
2013-7-9,102.4,87.5,74.8,76.2,72.2,69.4,89,63,36,29.94,29.80,14,2,14,0.00
2013-7-10,104.4,85.3,72.1,79.3,73.7,69.2,96,70,41,29.88,29.69,21,3,21,0.46
2013-7-11,103.8,81.6,72.1,79.0,74.1,67.2,99,81,42,29.81,29.68,19,2,19,0.19
2013-7-12,100.2,83.2,72.5,73.2,70.3,62.0,96,68,39,29.83,29.73,12,3,12,0.00
2013-7-13,95.4,79.3,64.9,67.6,63.6,59.0,82,60,37,29.84,29.73,10,2,10,0.00
2013-7-14,89.8,78.6,70.7,69.9,66.1,63.1,79,66,45,29.82,29.75,7,2,7,0.00
2013-7-15,96.6,77.8,70.9,74.9,69.9,66.9,96,79,45,29.96,29.79,14,3,14,0.06
2013-7-16,97.3,82.4,70.9,78.0,72.1,69.0,97,74,44,30.03,29.92,12,3,12,0.07
2013-7-17,99.9,84.7,75.2,76.4,72.9,70.6,87,70,41,30.07,29.95,12,2,12,0.00
2013-7-18,102.4,85.0,72.7,75.9,71.4,66.6,93,68,35,29.99,29.81,27,2,27,0.04
2013-7-19,94.5,77.8,70.7,77.5,72.0,67.2,97,83,56,29.87,29.75,13,2,13,0.04
2013-7-20,100.2,82.2,70.5,76.0,71.8,68.3,96,73,41,29.79,29.65,8,2,8,0.00
2013-7-21,99.1,82.8,71.4,80.7,74.6,69.5,95,78,50,29.76,29.67,8,1,8,0.27
2013-7-22,100.9,85.2,75.7,79.3,75.7,72.9,92,75,49,29.78,29.67,13,3,13,0.00
2013-7-23,101.1,85.1,73.6,79.8,75.5,70.4,94,75,49,29.78,29.61,15,4,15,0.05
2013-7-24,94.3,78.1,68.7,72.3,70.2,68.5,99,79,46,29.80,29.67,19,3,19,0.85
2013-7-25,94.5,81.8,72.1,76.6,72.2,68.8,91,74,51,29.88,29.77,8,2,8,0.00
2013-7-26,75.6,71.4,68.2,72.8,69.0,65.3,99,92,79,29.90,29.67,21,3,21,1.80
2013-7-27,93.7,78.1,68.2,71.4,68.5,65.8,99,76,42,29.80,29.72,11,3,14,0.01
2013-7-28,96.3,80.9,68.4,74.5,71.0,68.0,99,75,46,29.83,29.75,8,1,8,0.00
2013-7-29,99.3,82.4,72.5,78.6,73.7,69.9,94,77,47,29.88,29.79,8,2,8,0.00
2013-7-30,97.7,83.6,76.1,77.9,74.4,71.6,90,75,50,29.90,29.80,11,2,11,0.00
2013-7-31,97.9,83.0,74.7,80.6,75.3,72.0,97,79,49,29.88,29.74,11,1,11,0.24
2013-8-1,100.4,85.1,73.2,79.0,75.2,71.7,96,75,48,29.84,29.75,10,2,10,0.00
2013-8-2,101.5,85.8,73.0,81.2,76.7,72.2,98,76,50,29.80,29.71,8,2,8,0.00
2013-8-3,98.4,85.0,75.9,79.7,76.7,73.9,96,78,51,29.87,29.73,10,2,10,0.00
2013-8-4,103.1,87.3,75.6,80.7,76.9,74.8,98,74,44,29.91,29.77,9,2,9,0.00
2013-8-5,107.1,88.3,76.3,79.4,76.7,74.4,95,71,38,29.83,29.66,11,2,11,0.01
2013-8-6,106.2,88.9,76.8,78.8,75.2,71.8,86,66,37,29.74,29.62,8,2,8,0.00
2013-8-7,104.0,88.2,75.7,78.4,75.1,71.5,89,67,40,29.73,29.61,9,1,9,0.00
2013-8-8,103.3,88.7,77.0,78.7,75.4,70.9,89,67,41,29.74,29.60,8,1,8,0.00
2013-8-9,103.5,87.2,74.8,78.9,73.1,67.7,91,65,37,29.78,29.69,8,2,8,0.00
2013-8-10,105.1,87.5,74.1,80.1,74.8,68.4,99,70,32,29.85,29.72,23,2,23,0.97
2013-8-11,100.8,84.7,72.1,79.9,75.9,71.9,99,78,46,29.89,29.78,8,2,8,0.01
2013-8-12,98.6,83.5,72.9,78.5,74.6,69.3,97,76,50,29.86,29.73,24,3,24,0.02
2013-8-13,99.0,79.9,72.0,76.0,72.6,70.4,96,80,43,29.88,29.73,8,2,8,0.06
2013-8-14,87.6,77.7,68.0,73.9,67.9,61.4,94,74,44,29.88,29.77,14,4,14,0.00
2013-8-15,90.0,73.9,61.0,62.2,59.0,55.4,85,62,33,29.91,29.79,11,3,11,0.00
2013-8-16,81.5,68.6,61.5,65.8,60.8,57.6,91,78,49,29.90,29.82,9,2,9,0.05
2013-8-17,89.2,74.2,61.5,68.4,63.4,58.5,93,71,42,29.90,29.81,13,3,13,0.00
2013-8-18,93.6,78.0,66.6,70.5,66.8,64.3,98,72,41,29.91,29.82,11,2,11,0.00
2013-8-19,97.9,79.5,66.4,72.2,66.8,60.8,97,69,33,29.92,29.78,8,2,8,0.00
2013-8-20,99.7,82.8,69.3,72.9,67.3,61.9,92,63,32,29.89,29.77,8,2,8,0.00
2013-8-21,102.0,84.0,69.1,74.4,67.7,60.3,92,62,27,29.93,29.82,6,2,6,0.00
2013-8-22,100.6,83.0,72.3,76.5,71.8,68.1,92,71,40,29.91,29.83,6,2,6,0.00
2013-8-23,102.0,88.4,72.3,75.6,70.2,62.8,90,58,32,29.95,29.83,10,2,10,0.00
2013-8-24,101.5,85.5,74.7,76.3,72.7,69.1,91,68,38,30.01,29.91,11,3,11,0.00
2013-8-25,101.1,85.9,73.8,75.3,71.8,68.4,94,66,37,30.09,29.99,11,2,11,0.00
2013-8-26,99.0,84.3,72.3,75.6,70.0,65.2,93,65,35,30.11,29.73,9,2,9,0.00
2013-8-27,103.1,83.9,68.5,74.2,68.8,63.2,95,65,31,29.85,29.72,9,2,9,0.00
2013-8-28,105.8,87.0,72.0,73.9,69.8,66.5,89,60,31,29.80,29.69,8,1,8,0.00
2013-8-29,105.3,87.7,72.0,73.6,69.4,65.7,85,58,30,29.80,29.66,8,1,8,0.01
2013-8-30,106.2,87.6,71.8,74.5,69.9,65.3,92,60,29,29.74,29.59,8,1,8,0.00
2013-8-31,106.0,87.5,73.4,76.0,70.8,67.6,87,61,31,29.65,29.51,11,2,11,0.00
2013-9-1,105.4,88.9,72.9,76.4,72.7,67.2,96,62,35,29.63,29.47,24,3,24,0.24
2013-9-2,97.9,80.2,72.1,78.8,74.5,70.0,99,85,50,29.69,29.55,12,2,12,0.12
2013-9-3,100.9,84.8,74.1,76.8,72.2,67.2,99,70,34,29.71,29.60,8,3,8,0.00
2013-9-4,99.9,82.9,70.5,68.0,62.4,54.8,78,53,27,29.82,29.70,12,4,12,0.00
2013-9-5,100.6,81.4,67.1,67.7,61.1,49.9,85,55,19,29.85,29.74,10,3,10,0.00
2013-9-6,103.5,83.1,68.4,70.6,63.6,54.8,83,56,21,29.83,29.65,8,2,8,0.00
2013-9-7,104.7,85.3,71.2,74.0,67.0,61.9,83,58,27,29.75,29.59,8,2,8,0.00
2013-9-8,104.9,85.5,69.6,71.1,67.3,63.6,89,59,28,29.69,29.58,8,2,8,0.00
2013-9-9,103.5,84.7,70.0,71.8,66.5,60.9,88,59,26,29.74,29.64,9,1,9,0.00
2013-9-10,103.1,84.6,69.3,71.4,67.0,64.2,85,59,30,29.84,29.70,9,1,9,0.00
2013-9-11,103.3,84.9,74.1,72.9,69.9,65.9,83,63,33,29.83,29.73,9,2,9,0.00
2013-9-12,87.6,75.9,72.9,74.1,70.5,69.4,90,83,65,29.79,29.74,4,1,4,0.00
2013-9-13,95.7,81.9,71.8,70.4,65.7,55.7,88,61,34,29.71,29.59,15,4,15,0.00
2013-9-14,91.9,75.6,63.5,56.6,53.8,49.5,74,49,26,29.77,29.65,11,4,11,0.00
2013-9-15,97.7,76.8,59.7,63.7,56.3,50.5,72,52,27,29.80,29.69,6,2,6,0.00
2013-9-16,101.1,82.1,67.1,67.5,59.8,56.5,73,50,25,29.83,29.70,9,3,9,0.00
2013-9-17,95.9,80.8,70.3,71.1,67.1,58.0,86,65,43,29.83,29.69,9,3,9,0.00
2013-9-18,96.1,81.9,73.9,72.5,69.6,67.7,82,68,43,29.75,29.62,7,2,7,0.00
2013-9-19,98.1,84.2,73.2,74.6,69.7,67.0,88,64,39,29.74,29.58,17,2,17,0.01
2013-9-20,77.4,71.8,68.2,73.8,71.3,67.9,99,98,86,29.66,29.52,12,2,12,2.14
2013-9-21,88.2,71.0,60.6,68.5,57.3,48.2,99,67,28,29.67,29.55,14,3,14,0.01
2013-9-22,86.2,68.2,55.8,58.4,53.4,49.4,83,62,29,29.67,29.53,13,2,13,0.00
2013-9-23,86.4,68.2,56.1,60.5,56.7,53.5,93,70,36,29.62,29.50,13,2,13,0.00
2013-9-24,95.4,77.2,61.7,65.0,58.3,49.4,90,57,22,29.59,29.48,12,3,13,0.00
2013-9-25,95.2,73.3,58.1,62.5,59.2,55.7,96,66,29,29.59,29.49,11,2,11,0.00
2013-9-26,93.9,75.4,62.1,67.0,62.9,59.6,93,69,36,29.67,29.55,7,2,7,0.00
2013-9-27,75.2,66.9,64.0,66.2,62.8,61.6,92,87,74,29.73,29.64,7,2,7,0.00
2013-9-28,90.9,75.2,68.4,74.7,68.4,63.5,99,81,53,29.76,29.62,12,2,12,0.74
2013-9-29,90.0,79.6,69.6,74.7,65.5,54.7,99,66,34,29.92,29.71,11,2,11,0.00
2013-9-30,72.0,71.1,70.5,71.7,70.9,70.3,99,99,99,29.84,29.81,7,2,7,0.01
2013-10-1,87.3,76.3,70.2,76.2,72.6,69.9,99,89,66,29.93,29.82,9,1,9,0.00
2013-10-2,82.6,72.4,69.6,75.0,71.1,69.4,99,96,75,29.97,29.91,5,1,5,0.00
2013-10-3,92.8,77.7,69.6,75.2,71.7,69.3,99,84,52,29.93,29.81,7,1,7,0.00
2013-10-4,91.9,78.7,70.0,74.7,72.4,69.7,99,83,54,29.90,29.81,6,1,6,0.00
2013-10-5,92.1,75.2,56.3,76.9,70.2,52.8,99,85,57,29.97,29.78,12,3,12,0.18
2013-10-6,75.9,61.0,49.3,54.1,49.1,41.6,97,69,36,29.97,29.87,14,3,14,0.00
2013-10-7,84.6,63.9,47.1,51.2,47.4,42.4,96,62,25,30.04,29.95,10,2,10,0.00
2013-10-8,81.1,62.2,50.7,54.6,51.2,48.9,96,71,36,30.06,29.96,10,2,10,0.00
2013-10-9,82.4,64.0,50.9,57.4,53.1,47.5,91,71,40,30.04,29.95,6,1,6,0.00
2013-10-10,86.2,66.9,53.6,62.3,57.5,52.5,96,75,42,30.03,29.89,5,1,5,0.00
2013-10-11,87.1,70.8,57.6,69.8,64.0,57.0,99,81,53,29.93,29.81,7,1,7,0.00
2013-10-12,80.1,70.7,67.3,73.4,69.0,64.9,99,94,78,30.03,29.86,7,1,7,0.17
2013-10-13,79.0,71.6,66.7,70.0,67.0,60.4,99,86,67,30.18,30.02,13,3,13,0.00
2013-10-14,71.6,66.7,61.7,69.4,61.1,52.9,98,82,71,30.12,29.93,11,3,11,0.00
2013-10-15,73.8,68.0,63.3,73.5,67.7,63.1,99,99,95,29.94,29.85,10,1,10,1.41
2013-10-16,63.3,59.2,56.3,63.1,59.0,56.0,99,99,99,29.98,29.87,9,2,9,0.07
2013-10-19,73.8,56.6,44.6,59.3,45.2,33.7,99,71,26,30.05,29.89,13,3,13,0.00
2013-10-20,74.8,54.4,39.7,52.0,45.4,39.5,99,76,36,29.98,29.87,7,1,7,0.00
2013-10-21,73.2,58.8,49.1,59.7,53.8,47.7,99,85,58,29.98,29.87,11,2,11,0.28
2013-10-22,71.6,58.0,48.0,56.2,51.2,47.8,99,81,46,30.03,29.90,12,2,12,0.01
2013-10-23,80.8,59.1,46.4,53.7,49.1,46.1,99,74,36,30.06,29.95,8,1,8,0.00
2013-10-24,79.5,60.5,48.7,57.3,50.3,43.4,99,73,37,30.26,29.97,11,2,11,0.00
2013-10-25,64.6,50.1,41.5,42.8,37.7,32.0,86,64,36,30.40,30.21,12,4,12,0.00
2013-10-26,53.6,46.6,41.9,48.8,42.6,39.2,97,86,65,30.21,30.08,4,1,4,0.27
2013-10-27,78.8,65.2,55.4,70.0,61.4,55.1,99,89,67,30.14,29.89,10,2,10,0.01
2013-10-28,76.1,63.3,54.5,64.8,59.8,54.2,99,89,64,30.05,29.92,8,2,8,0.00
2013-10-29,81.1,69.0,61.0,70.1,65.0,60.5,99,88,64,30.05,29.93,10,2,10,0.00
2013-10-30,73.4,67.0,63.3,69.2,65.2,60.3,99,94,73,29.99,29.76,9,2,9,0.31
2013-10-31,78.6,67.0,51.3,71.1,59.9,44.7,99,81,35,29.75,29.50,23,3,23,0.20
2013-11-1,78.4,59.7,44.2,55.9,48.7,42.0,99,72,31,29.88,29.71,8,2,8,0.00
2013-11-2,66.9,54.9,42.3,46.1,41.0,36.5,89,62,35,30.10,29.87,18,3,18,0.00
2013-11-3,69.4,47.7,39.9,44.8,40.6,38.2,95,80,39,30.13,30.00,11,2,11,0.00
2013-11-4,56.8,51.1,42.6,56.6,49.4,40.2,99,94,65,30.11,29.85,7,1,7,0.73
2013-11-5,78.8,69.4,55.8,70.0,66.1,55.5,99,90,67,30.12,29.86,10,3,10,3.51
2013-11-6,66.9,57.2,37.9,66.6,55.3,37.2,99,93,77,30.16,29.83,12,4,12,0.52
2013-11-7,60.6,40.1,34.0,42.8,37.0,33.7,99,91,51,30.30,30.15,8,1,8,0.00
2013-11-8,61.3,44.0,38.8,48.7,41.8,38.6,99,93,56,30.21,30.15,6,1,6,0.00
2013-11-9,61.5,54.5,50.4,54.4,50.8,47.5,98,87,74,30.11,30.02,4,0,4,0.06
2013-11-10,75.6,59.1,52.9,54.6,51.9,47.7,98,80,39,30.21,30.11,10,1,10,0.00
2013-11-11,76.3,57.3,46.6,55.9,50.2,45.1,99,80,44,30.14,30.03,7,1,7,0.00
2013-11-12,60.6,49.5,35.2,55.2,35.2,17.2,99,62,23,30.49,26.62,20,5,20,0.00
2013-11-13,59.2,37.2,26.8,28.2,21.5,14.7,90,57,18,30.52,30.23,14,2,14,0.00
2013-11-14,65.7,43.0,26.6,36.9,29.9,24.3,93,64,26,30.23,29.94,10,1,10,0.00
2013-11-15,57.0,50.4,44.8,55.9,48.7,37.5,99,94,72,29.95,29.78,5,1,5,0.05
2013-11-16,72.0,64.9,56.1,69.3,62.9,55.7,99,93,79,29.82,29.63,11,2,11,0.00
2013-11-17,84.9,74.0,70.3,72.5,70.5,64.8,99,90,53,29.65,29.58,19,6,19,0.02
2013-11-18,73.8,58.3,45.5,40.0,35.0,27.1,68,44,23,30.08,29.88,12,3,12,0.00
2013-11-19,62.8,52.2,46.4,39.5,33.1,26.3,71,50,26,30.11,29.96,18,4,18,0.00
2013-11-20,71.4,53.5,40.5,40.9,35.1,30.3,76,52,23,29.98,29.85,9,2,9,0.00
2013-11-21,66.9,57.2,52.7,66.7,52.5,40.1,99,86,51,29.96,29.88,13,2,13,0.38
2013-11-22,62.6,50.2,41.4,62.3,48.2,41.0,99,93,81,30.22,29.94,17,6,17,1.71
2013-11-23,49.6,42.8,37.9,41.5,34.4,22.6,99,74,50,30.36,30.19,16,5,16,0.18
2013-11-24,62.6,37.6,28.9,33.7,20.4,13.1,64,51,27,30.44,29.58,15,5,15,0.05
2013-11-25,34.9,32.7,30.6,34.6,29.8,20.9,99,90,63,29.83,29.59,9,2,9,0.33
2013-11-26,51.6,40.4,34.2,37.6,33.8,24.2,99,79,52,29.72,29.51,15,5,15,0.01
2013-11-27,52.9,34.4,25.0,24.2,20.6,12.8,87,61,21,29.86,29.72,11,2,11,0.00
2013-11-28,58.8,35.4,23.2,31.8,26.8,21.5,94,74,34,29.93,29.81,9,1,9,0.00
2013-11-29,61.7,39.3,25.5,36.3,29.8,24.8,97,74,27,29.99,29.85,8,1,8,0.00
2013-11-30,67.1,46.6,31.5,45.6,38.0,29.2,93,74,45,29.85,29.65,7,1,7,0.00
2013-12-1,64.0,56.8,51.1,56.0,51.0,44.8,93,81,71,29.65,29.36,7,1,7,0.00
2013-12-2,67.5,57.4,47.5,58.6,54.0,47.2,99,89,65,29.36,29.17,9,1,9,0.00
2013-12-3,62.2,54.3,46.6,57.8,49.4,28.1,99,88,28,30.40,29.13,8,2,8,0.01
2013-12-4,81.0,64.5,51.3,64.8,59.7,51.0,99,86,54,30.08,29.91,11,2,11,0.00
2013-12-5,65.7,44.1,35.2,63.9,41.5,32.5,99,91,82,30.40,30.07,14,5,14,0.45
2013-12-6,35.4,32.9,29.1,34.7,31.5,25.9,99,95,87,30.69,30.29,12,5,12,1.05
2013-12-7,32.7,28.1,26.2,26.2,22.8,19.8,88,80,69,30.78,30.52,21,7,21,0.00
2013-12-8,35.4,29.4,25.0,31.8,26.7,21.6,94,90,83,30.55,30.33,7,2,8,0.02
2013-12-9,34.7,33.6,32.7,32.2,30.5,29.6,91,88,85,30.54,30.39,11,4,11,0.00
2013-12-10,62.8,45.5,26.1,33.7,27.5,22.8,94,54,26,29.93,29.58,15,3,15,4.19
2013-12-11,52.2,35.9,23.9,36.5,29.4,23.1,98,79,47,30.03,29.80,10,2,10,0.01
2013-12-12,54.7,36.0,26.2,27.7,24.4,20.0,95,66,28,30.08,29.80,11,1,11,0.00
2013-12-13,42.4,37.3,34.3,37.7,32.1,25.9,99,82,60,29.81,29.33,9,1,9,0.65
2013-12-14,48.9,39.4,31.8,45.3,36.6,28.3,99,90,76,29.72,29.29,15,3,15,0.01
2013-12-15,57.0,36.8,24.6,35.6,30.0,23.9,98,79,42,29.79,29.67,8,1,8,0.00
2013-12-16,68.0,43.5,28.8,40.2,34.6,27.8,99,74,35,29.74,29.62,12,1,12,0.00
2013-12-17,73.6,49.3,32.7,44.0,38.0,31.1,96,69,31,29.75,29.66,10,1,10,0.00
2013-12-18,70.7,53.5,42.1,44.9,39.7,32.5,78,61,36,29.77,29.55,11,3,11,0.00
2013-12-19,69.1,58.5,46.9,60.8,51.7,41.1,92,78,61,29.55,29.30,14,4,14,0.00
2013-12-20,70.9,66.6,64.0,68.5,64.7,60.5,99,94,85,29.39,29.17,12,2,12,0.09
2013-12-21,70.3,56.6,52.2,68.5,56.1,51.8,99,98,87,29.24,28.98,21,4,21,1.19
2013-12-22,52.3,40.5,29.8,51.8,36.6,25.2,99,86,75,29.81,29.23,15,5,15,0.01
2013-12-23,51.1,32.6,23.5,30.7,26.5,22.6,97,80,44,29.99,29.80,8,1,8,0.00
2013-12-24,52.3,34.8,25.7,32.4,27.8,23.6,95,77,45,30.04,29.80,12,2,12,0.00
2013-12-25,53.2,37.9,26.8,36.2,31.2,25.8,97,78,51,29.85,29.76,8,2,8,0.00
2013-12-26,62.6,40.0,28.4,35.2,31.1,28.0,99,74,33,29.90,29.77,11,1,11,0.00
2013-12-27,65.3,42.7,30.4,38.8,32.8,28.8,95,72,32,29.91,29.79,8,1,8,0.00
2013-12-28,55.0,42.5,34.0,42.6,35.5,31.2,94,78,49,29.79,29.46,4,0,4,0.02
2013-12-29,61.9,44.5,34.3,42.8,36.4,27.3,95,75,46,29.67,29.43,13,2,13,0.00
2013-12-30,36.7,34.0,27.7,32.5,29.3,26.1,96,83,70,29.84,29.63,10,2,10,0.00
2013-12-31,57.7,36.3,23.9,36.3,28.8,23.4,99,78,36,29.91,29.71,8,1,8,0.00
2014-1-1,63.3,43.4,26.2,48.4,36.3,25.3,97,78,44,29.71,29.40,8,2,8,0.00
2014-1-2,52.2,36.4,27.0,48.7,22.1,17.0,90,58,29,29.88,29.42,17,5,17,0.00